sensor_id;sensor_type;location;lat;lon;timestamp;temperature;humidity
4518;DHT22;2271;49.464;11.070;2022-12-07T00:00:50;5.20;99.90
4518;DHT22;2271;49.464;11.070;2022-12-07T00:03:16;5.20;99.90
4518;DHT22;2271;49.464;11.070;2022-12-07T00:05:41;5.30;99.90
4518;DHT22;2271;49.464;11.070;2022-12-07T00:08:07;5.30;99.90
4518;DHT22;2271;49.464;11.070;2022-12-07T00:10:35;5.30;99.90
4518;DHT22;2271;49.464;11.070;2022-12-07T00:13:01;5.30;99.90
4518;DHT22;2271;49.464;11.070;2022-12-07T00:15:27;5.30;99.90
4518;DHT22;2271;49.464;11.070;2022-12-07T00:17:52;5.30;99.90
4518;DHT22;2271;49.464;11.070;2022-12-07T00:20:18;5.30;99.90
4518;DHT22;2271;49.464;11.070;2022-12-07T00:22:43;5.30;99.90
4518;DHT22;2271;49.464;11.070;2022-12-07T00:25:09;5.20;99.90
4518;DHT22;2271;49.464;11.070;2022-12-07T00:27:34;5.20;99.90
4518;DHT22;2271;49.464;11.070;2022-12-07T00:30:00;5.20;99.90
4518;DHT22;2271;49.464;11.070;2022-12-07T00:32:26;5.20;99.90
4518;DHT22;2271;49.464;11.070;2022-12-07T00:34:52;5.30;99.90
4518;DHT22;2271;49.464;11.070;2022-12-07T00:37:17;5.30;99.90
4518;DHT22;2271;49.464;11.070;2022-12-07T00:39:43;5.20;99.90
4518;DHT22;2271;49.464;11.070;2022-12-07T00:42:08;5.30;99.90
4518;DHT22;2271;49.464;11.070;2022-12-07T00:44:34;5.30;99.90
4518;DHT22;2271;49.464;11.070;2022-12-07T00:47:00;5.30;99.90
4518;DHT22;2271;49.464;11.070;2022-12-07T00:49:25;5.20;99.90
4518;DHT22;2271;49.464;11.070;2022-12-07T00:51:51;5.20;99.90
4518;DHT22;2271;49.464;11.070;2022-12-07T00:54:16;5.20;99.90
4518;DHT22;2271;49.464;11.070;2022-12-07T00:56:42;5.20;99.90
4518;DHT22;2271;49.464;11.070;2022-12-07T00:59:12;5.20;99.90
4518;DHT22;2271;49.464;11.070;2022-12-07T01:01:38;5.30;99.90
4518;DHT22;2271;49.464;11.070;2022-12-07T01:04:04;5.30;99.90
4518;DHT22;2271;49.464;11.070;2022-12-07T01:06:30;5.20;99.90
4518;DHT22;2271;49.464;11.070;2022-12-07T01:08:56;5.20;99.90
4518;DHT22;2271;49.464;11.070;2022-12-07T01:11:24;5.20;99.90
4518;DHT22;2271;49.464;11.070;2022-12-07T01:13:51;5.20;99.90
4518;DHT22;2271;49.464;11.070;2022-12-07T01:16:18;5.20;99.90
4518;DHT22;2271;49.464;11.070;2022-12-07T01:18:47;5.20;99.90
4518;DHT22;2271;49.464;11.070;2022-12-07T01:21:22;5.20;99.90
4518;DHT22;2271;49.464;11.070;2022-12-07T01:23:48;5.20;99.90
4518;DHT22;2271;49.464;11.070;2022-12-07T01:26:16;5.20;99.90
4518;DHT22;2271;49.464;11.070;2022-12-07T01:28:43;5.20;99.90
4518;DHT22;2271;49.464;11.070;2022-12-07T01:31:13;5.10;99.90
4518;DHT22;2271;49.464;11.070;2022-12-07T01:33:45;5.20;99.90
4518;DHT22;2271;49.464;11.070;2022-12-07T01:36:17;5.20;99.90
4518;DHT22;2271;49.464;11.070;2022-12-07T01:38:43;5.20;99.90
4518;DHT22;2271;49.464;11.070;2022-12-07T01:41:10;5.20;99.90
4518;DHT22;2271;49.464;11.070;2022-12-07T01:43:35;5.20;99.90
4518;DHT22;2271;49.464;11.070;2022-12-07T01:46:03;5.20;99.90
4518;DHT22;2271;49.464;11.070;2022-12-07T01:48:40;5.20;99.90
4518;DHT22;2271;49.464;11.070;2022-12-07T01:51:10;5.20;99.90
4518;DHT22;2271;49.464;11.070;2022-12-07T01:53:41;5.20;99.90
4518;DHT22;2271;49.464;11.070;2022-12-07T01:56:10;5.20;99.90
4518;DHT22;2271;49.464;11.070;2022-12-07T01:58:36;5.20;99.90
4518;DHT22;2271;49.464;11.070;2022-12-07T02:01:03;5.20;99.90
4518;DHT22;2271;49.464;11.070;2022-12-07T02:03:38;5.20;99.90
4518;DHT22;2271;49.464;11.070;2022-12-07T02:06:05;5.20;99.90
4518;DHT22;2271;49.464;11.070;2022-12-07T02:08:32;5.20;99.90
4518;DHT22;2271;49.464;11.070;2022-12-07T02:10:59;5.20;99.90
4518;DHT22;2271;49.464;11.070;2022-12-07T02:13:26;5.20;99.90
4518;DHT22;2271;49.464;11.070;2022-12-07T02:19:09;5.20;99.90
4518;DHT22;2271;49.464;11.070;2022-12-07T02:29:47;5.10;99.90
4518;DHT22;2271;49.464;11.070;2022-12-07T02:32:26;5.20;99.90
4518;DHT22;2271;49.464;11.070;2022-12-07T02:34:58;5.20;99.90
4518;DHT22;2271;49.464;11.070;2022-12-07T02:40:41;5.10;99.90
4518;DHT22;2271;49.464;11.070;2022-12-07T02:43:28;5.10;99.90
4518;DHT22;2271;49.464;11.070;2022-12-07T02:45:59;5.10;99.90
4518;DHT22;2271;49.464;11.070;2022-12-07T02:48:27;5.10;99.90
4518;DHT22;2271;49.464;11.070;2022-12-07T02:50:54;5.20;99.90
4518;DHT22;2271;49.464;11.070;2022-12-07T02:56:23;5.20;99.90
4518;DHT22;2271;49.464;11.070;2022-12-07T03:07:46;5.20;99.90
4518;DHT22;2271;49.464;11.070;2022-12-07T03:10:33;5.10;99.90
4518;DHT22;2271;49.464;11.070;2022-12-07T03:13:12;5.10;99.90
4518;DHT22;2271;49.464;11.070;2022-12-07T03:15:45;5.10;99.90
4518;DHT22;2271;49.464;11.070;2022-12-07T03:18:16;5.00;99.90
4518;DHT22;2271;49.464;11.070;2022-12-07T03:20:44;5.00;99.90
4518;DHT22;2271;49.464;11.070;2022-12-07T03:23:12;4.90;99.90
4518;DHT22;2271;49.464;11.070;2022-12-07T03:25:48;4.80;99.90
4518;DHT22;2271;49.464;11.070;2022-12-07T03:28:18;4.90;99.90
4518;DHT22;2271;49.464;11.070;2022-12-07T03:30:53;4.90;99.90
4518;DHT22;2271;49.464;11.070;2022-12-07T03:33:33;4.90;99.90
4518;DHT22;2271;49.464;11.070;2022-12-07T03:39:03;4.90;99.90
4518;DHT22;2271;49.464;11.070;2022-12-07T03:41:34;4.80;99.90
4518;DHT22;2271;49.464;11.070;2022-12-07T03:44:01;4.80;99.90
4518;DHT22;2271;49.464;11.070;2022-12-07T03:49:45;4.90;99.90
4518;DHT22;2271;49.464;11.070;2022-12-07T03:52:28;4.90;99.90
4518;DHT22;2271;49.464;11.070;2022-12-07T03:55:17;4.90;99.90
4518;DHT22;2271;49.464;11.070;2022-12-07T03:57:47;4.90;99.90
4518;DHT22;2271;49.464;11.070;2022-12-07T04:00:15;4.90;99.90
4518;DHT22;2271;49.464;11.070;2022-12-07T04:02:41;4.90;99.90
4518;DHT22;2271;49.464;11.070;2022-12-07T04:05:08;4.90;99.90
4518;DHT22;2271;49.464;11.070;2022-12-07T04:07:34;4.90;99.90
4518;DHT22;2271;49.464;11.070;2022-12-07T04:09:59;4.80;99.90
4518;DHT22;2271;49.464;11.070;2022-12-07T04:12:25;4.80;99.90
4518;DHT22;2271;49.464;11.070;2022-12-07T04:14:50;4.70;99.90
4518;DHT22;2271;49.464;11.070;2022-12-07T04:17:16;4.70;99.90
4518;DHT22;2271;49.464;11.070;2022-12-07T04:19:42;4.70;99.90
4518;DHT22;2271;49.464;11.070;2022-12-07T04:22:07;4.70;99.90
4518;DHT22;2271;49.464;11.070;2022-12-07T04:24:34;4.70;99.90
4518;DHT22;2271;49.464;11.070;2022-12-07T04:27:00;4.70;99.90
4518;DHT22;2271;49.464;11.070;2022-12-07T04:29:26;4.70;99.90
4518;DHT22;2271;49.464;11.070;2022-12-07T04:31:52;4.70;99.90
4518;DHT22;2271;49.464;11.070;2022-12-07T04:34:18;4.70;99.90
4518;DHT22;2271;49.464;11.070;2022-12-07T04:36:44;4.70;99.90
4518;DHT22;2271;49.464;11.070;2022-12-07T04:39:30;4.70;99.90
4518;DHT22;2271;49.464;11.070;2022-12-07T04:41:57;4.70;99.90
4518;DHT22;2271;49.464;11.070;2022-12-07T04:44:24;4.70;99.90
4518;DHT22;2271;49.464;11.070;2022-12-07T04:46:50;4.70;99.90
4518;DHT22;2271;49.464;11.070;2022-12-07T04:49:16;4.70;99.90
4518;DHT22;2271;49.464;11.070;2022-12-07T04:51:43;4.70;99.90
4518;DHT22;2271;49.464;11.070;2022-12-07T04:54:09;4.60;99.90
4518;DHT22;2271;49.464;11.070;2022-12-07T04:56:35;4.60;99.90
4518;DHT22;2271;49.464;11.070;2022-12-07T04:59:01;4.60;99.90
4518;DHT22;2271;49.464;11.070;2022-12-07T05:01:27;4.60;99.90
4518;DHT22;2271;49.464;11.070;2022-12-07T05:03:52;4.60;99.90
4518;DHT22;2271;49.464;11.070;2022-12-07T05:06:18;4.70;99.90
4518;DHT22;2271;49.464;11.070;2022-12-07T05:08:44;4.70;99.90
4518;DHT22;2271;49.464;11.070;2022-12-07T05:11:11;4.70;99.90
4518;DHT22;2271;49.464;11.070;2022-12-07T05:13:57;4.70;99.90
4518;DHT22;2271;49.464;11.070;2022-12-07T05:16:23;4.70;99.90
4518;DHT22;2271;49.464;11.070;2022-12-07T05:18:48;4.70;99.90
4518;DHT22;2271;49.464;11.070;2022-12-07T05:21:14;4.70;99.90
4518;DHT22;2271;49.464;11.070;2022-12-07T05:23:39;4.70;99.90
4518;DHT22;2271;49.464;11.070;2022-12-07T05:26:05;4.70;99.90
4518;DHT22;2271;49.464;11.070;2022-12-07T05:28:31;4.70;99.90
4518;DHT22;2271;49.464;11.070;2022-12-07T05:30:56;4.70;99.90
4518;DHT22;2271;49.464;11.070;2022-12-07T05:33:22;4.70;99.90
4518;DHT22;2271;49.464;11.070;2022-12-07T05:35:47;4.70;99.90
4518;DHT22;2271;49.464;11.070;2022-12-07T05:38:13;4.80;99.90
4518;DHT22;2271;49.464;11.070;2022-12-07T05:40:38;4.80;99.90
4518;DHT22;2271;49.464;11.070;2022-12-07T05:43:04;4.80;99.90
4518;DHT22;2271;49.464;11.070;2022-12-07T05:45:30;4.80;99.90
4518;DHT22;2271;49.464;11.070;2022-12-07T05:47:55;4.70;99.90
4518;DHT22;2271;49.464;11.070;2022-12-07T05:50:21;4.70;99.90
4518;DHT22;2271;49.464;11.070;2022-12-07T05:52:46;4.70;99.90
4518;DHT22;2271;49.464;11.070;2022-12-07T05:55:12;4.70;99.90
4518;DHT22;2271;49.464;11.070;2022-12-07T05:57:38;4.70;99.90
4518;DHT22;2271;49.464;11.070;2022-12-07T06:00:04;4.80;99.90
4518;DHT22;2271;49.464;11.070;2022-12-07T06:02:30;4.80;99.90
4518;DHT22;2271;49.464;11.070;2022-12-07T06:04:56;4.80;99.90
4518;DHT22;2271;49.464;11.070;2022-12-07T06:07:21;4.80;99.90
4518;DHT22;2271;49.464;11.070;2022-12-07T06:09:47;4.70;99.90
4518;DHT22;2271;49.464;11.070;2022-12-07T06:12:13;4.70;99.90
4518;DHT22;2271;49.464;11.070;2022-12-07T06:14:57;4.70;99.90
4518;DHT22;2271;49.464;11.070;2022-12-07T06:17:23;4.80;99.90
4518;DHT22;2271;49.464;11.070;2022-12-07T06:19:49;4.70;99.90
4518;DHT22;2271;49.464;11.070;2022-12-07T06:22:14;4.70;99.90
4518;DHT22;2271;49.464;11.070;2022-12-07T06:24:41;4.70;99.90
4518;DHT22;2271;49.464;11.070;2022-12-07T06:27:08;4.70;99.90
4518;DHT22;2271;49.464;11.070;2022-12-07T06:29:33;4.70;99.90
4518;DHT22;2271;49.464;11.070;2022-12-07T06:31:59;4.70;99.90
4518;DHT22;2271;49.464;11.070;2022-12-07T06:34:25;4.70;99.90
4518;DHT22;2271;49.464;11.070;2022-12-07T06:36:52;4.80;99.90
4518;DHT22;2271;49.464;11.070;2022-12-07T06:39:20;4.70;99.90
4518;DHT22;2271;49.464;11.070;2022-12-07T06:41:46;4.80;99.90
4518;DHT22;2271;49.464;11.070;2022-12-07T06:44:12;4.80;99.90
4518;DHT22;2271;49.464;11.070;2022-12-07T06:46:38;4.70;99.90
4518;DHT22;2271;49.464;11.070;2022-12-07T06:49:04;4.70;99.90
4518;DHT22;2271;49.464;11.070;2022-12-07T06:51:31;4.70;99.90
4518;DHT22;2271;49.464;11.070;2022-12-07T06:53:56;4.70;99.90
4518;DHT22;2271;49.464;11.070;2022-12-07T06:56:22;4.70;99.90
4518;DHT22;2271;49.464;11.070;2022-12-07T06:58:48;4.70;99.90
4518;DHT22;2271;49.464;11.070;2022-12-07T07:01:16;4.70;99.90
4518;DHT22;2271;49.464;11.070;2022-12-07T07:03:42;4.70;99.90
4518;DHT22;2271;49.464;11.070;2022-12-07T07:06:08;4.70;99.90
4518;DHT22;2271;49.464;11.070;2022-12-07T07:08:35;4.80;99.90
4518;DHT22;2271;49.464;11.070;2022-12-07T07:11:01;4.80;99.90
4518;DHT22;2271;49.464;11.070;2022-12-07T07:13:27;4.80;99.90
4518;DHT22;2271;49.464;11.070;2022-12-07T07:15:53;4.80;99.90
4518;DHT22;2271;49.464;11.070;2022-12-07T07:18:19;4.80;99.90
4518;DHT22;2271;49.464;11.070;2022-12-07T07:20:45;4.80;99.90
4518;DHT22;2271;49.464;11.070;2022-12-07T07:23:10;4.80;99.90
4518;DHT22;2271;49.464;11.070;2022-12-07T07:25:36;4.80;99.90
4518;DHT22;2271;49.464;11.070;2022-12-07T07:28:02;4.80;99.90
4518;DHT22;2271;49.464;11.070;2022-12-07T07:30:28;4.80;99.90
4518;DHT22;2271;49.464;11.070;2022-12-07T07:32:58;4.90;99.90
4518;DHT22;2271;49.464;11.070;2022-12-07T07:35:24;4.90;99.90
4518;DHT22;2271;49.464;11.070;2022-12-07T07:37:50;4.90;99.90
4518;DHT22;2271;49.464;11.070;2022-12-07T07:40:16;4.90;99.90
4518;DHT22;2271;49.464;11.070;2022-12-07T07:42:42;4.90;99.90
4518;DHT22;2271;49.464;11.070;2022-12-07T07:45:07;4.80;99.90
4518;DHT22;2271;49.464;11.070;2022-12-07T07:47:33;5.00;99.90
4518;DHT22;2271;49.464;11.070;2022-12-07T07:49:59;5.20;99.90
4518;DHT22;2271;49.464;11.070;2022-12-07T07:52:24;5.40;99.90
4518;DHT22;2271;49.464;11.070;2022-12-07T07:54:50;5.50;99.90
4518;DHT22;2271;49.464;11.070;2022-12-07T07:57:17;5.40;99.90
4518;DHT22;2271;49.464;11.070;2022-12-07T07:59:42;5.30;99.90
4518;DHT22;2271;49.464;11.070;2022-12-07T08:02:19;5.20;99.90
4518;DHT22;2271;49.464;11.070;2022-12-07T08:04:44;5.20;99.90
4518;DHT22;2271;49.464;11.070;2022-12-07T08:07:11;5.20;99.90
4518;DHT22;2271;49.464;11.070;2022-12-07T08:09:37;5.10;99.90
4518;DHT22;2271;49.464;11.070;2022-12-07T08:12:03;5.20;99.90
4518;DHT22;2271;49.464;11.070;2022-12-07T08:14:28;5.20;99.90
4518;DHT22;2271;49.464;11.070;2022-12-07T08:16:54;5.20;99.90
4518;DHT22;2271;49.464;11.070;2022-12-07T08:19:20;5.20;99.90
4518;DHT22;2271;49.464;11.070;2022-12-07T08:21:47;5.20;99.90
4518;DHT22;2271;49.464;11.070;2022-12-07T08:24:13;5.20;99.90
4518;DHT22;2271;49.464;11.070;2022-12-07T08:26:39;5.20;99.90
4518;DHT22;2271;49.464;11.070;2022-12-07T08:29:05;5.20;99.90
4518;DHT22;2271;49.464;11.070;2022-12-07T08:31:31;5.20;99.90
4518;DHT22;2271;49.464;11.070;2022-12-07T08:33:57;5.20;99.90
4518;DHT22;2271;49.464;11.070;2022-12-07T08:36:23;5.20;99.90
4518;DHT22;2271;49.464;11.070;2022-12-07T08:38:49;5.20;99.90
4518;DHT22;2271;49.464;11.070;2022-12-07T08:41:15;5.20;99.90
4518;DHT22;2271;49.464;11.070;2022-12-07T08:43:41;5.30;99.90
4518;DHT22;2271;49.464;11.070;2022-12-07T08:48:50;5.20;99.90
4518;DHT22;2271;49.464;11.070;2022-12-07T08:51:18;5.20;99.90
4518;DHT22;2271;49.464;11.070;2022-12-07T08:53:45;5.30;99.90
4518;DHT22;2271;49.464;11.070;2022-12-07T08:56:11;5.30;99.90
4518;DHT22;2271;49.464;11.070;2022-12-07T08:58:37;5.30;99.90
4518;DHT22;2271;49.464;11.070;2022-12-07T09:01:03;5.20;99.90
4518;DHT22;2271;49.464;11.070;2022-12-07T09:03:30;5.30;99.90
4518;DHT22;2271;49.464;11.070;2022-12-07T09:05:57;5.20;99.90
4518;DHT22;2271;49.464;11.070;2022-12-07T09:08:27;5.20;99.90
4518;DHT22;2271;49.464;11.070;2022-12-07T09:10:55;5.20;99.90
4518;DHT22;2271;49.464;11.070;2022-12-07T09:13:20;5.20;99.90
4518;DHT22;2271;49.464;11.070;2022-12-07T09:15:46;5.20;99.90
4518;DHT22;2271;49.464;11.070;2022-12-07T09:18:11;5.20;99.90
4518;DHT22;2271;49.464;11.070;2022-12-07T09:20:37;5.30;99.90
4518;DHT22;2271;49.464;11.070;2022-12-07T09:23:06;5.20;99.90
4518;DHT22;2271;49.464;11.070;2022-12-07T09:25:32;5.30;99.90
4518;DHT22;2271;49.464;11.070;2022-12-07T09:27:58;5.30;99.90
4518;DHT22;2271;49.464;11.070;2022-12-07T09:30:25;5.20;99.90
4518;DHT22;2271;49.464;11.070;2022-12-07T09:32:53;5.20;99.90
4518;DHT22;2271;49.464;11.070;2022-12-07T09:35:19;5.20;99.90
4518;DHT22;2271;49.464;11.070;2022-12-07T09:37:45;5.20;99.90
4518;DHT22;2271;49.464;11.070;2022-12-07T09:40:11;5.20;99.90
4518;DHT22;2271;49.464;11.070;2022-12-07T09:42:44;5.20;99.90
4518;DHT22;2271;49.464;11.070;2022-12-07T09:45:25;5.20;99.90
4518;DHT22;2271;49.464;11.070;2022-12-07T09:47:52;5.20;99.90
4518;DHT22;2271;49.464;11.070;2022-12-07T09:50:24;5.30;99.90
4518;DHT22;2271;49.464;11.070;2022-12-07T09:52:51;5.30;99.90
4518;DHT22;2271;49.464;11.070;2022-12-07T09:55:27;5.30;99.90
4518;DHT22;2271;49.464;11.070;2022-12-07T09:57:54;5.30;99.90
4518;DHT22;2271;49.464;11.070;2022-12-07T10:00:22;5.30;99.90
4518;DHT22;2271;49.464;11.070;2022-12-07T10:02:59;5.40;99.90
4518;DHT22;2271;49.464;11.070;2022-12-07T10:05:41;5.40;99.90
4518;DHT22;2271;49.464;11.070;2022-12-07T10:08:10;5.40;99.90
4518;DHT22;2271;49.464;11.070;2022-12-07T10:10:36;5.50;99.90
4518;DHT22;2271;49.464;11.070;2022-12-07T10:13:09;5.40;99.90
4518;DHT22;2271;49.464;11.070;2022-12-07T10:18:27;5.40;99.90
4518;DHT22;2271;49.464;11.070;2022-12-07T10:23:37;5.40;99.90
4518;DHT22;2271;49.464;11.070;2022-12-07T10:26:25;5.40;99.90
4518;DHT22;2271;49.464;11.070;2022-12-07T10:28:51;5.40;99.90
4518;DHT22;2271;49.464;11.070;2022-12-07T10:31:20;5.50;99.90
4518;DHT22;2271;49.464;11.070;2022-12-07T10:33:58;5.50;99.90
4518;DHT22;2271;49.464;11.070;2022-12-07T10:41:28;5.50;99.90
4518;DHT22;2271;49.464;11.070;2022-12-07T10:43:56;5.40;99.90
4518;DHT22;2271;49.464;11.070;2022-12-07T10:52:20;5.50;99.90
4518;DHT22;2271;49.464;11.070;2022-12-07T11:00:42;5.50;99.90
4518;DHT22;2271;49.464;11.070;2022-12-07T11:05:52;5.60;99.90
4518;DHT22;2271;49.464;11.070;2022-12-07T11:08:46;5.60;99.90
4518;DHT22;2271;49.464;11.070;2022-12-07T11:11:32;5.60;99.90
4518;DHT22;2271;49.464;11.070;2022-12-07T11:14:10;5.60;99.90
4518;DHT22;2271;49.464;11.070;2022-12-07T11:17:00;5.70;99.90
4518;DHT22;2271;49.464;11.070;2022-12-07T11:30:23;5.60;99.90
4518;DHT22;2271;49.464;11.070;2022-12-07T11:38:30;5.70;99.90
4518;DHT22;2271;49.464;11.070;2022-12-07T11:41:02;5.70;99.90
4518;DHT22;2271;49.464;11.070;2022-12-07T11:44:01;5.70;99.90
4518;DHT22;2271;49.464;11.070;2022-12-07T11:46:48;5.70;99.90
4518;DHT22;2271;49.464;11.070;2022-12-07T11:52:01;5.80;99.90
4518;DHT22;2271;49.464;11.070;2022-12-07T11:54:32;5.80;99.90
4518;DHT22;2271;49.464;11.070;2022-12-07T11:57:04;5.70;99.90
4518;DHT22;2271;49.464;11.070;2022-12-07T11:59:32;5.80;99.90
4518;DHT22;2271;49.464;11.070;2022-12-07T12:02:16;5.80;99.90
4518;DHT22;2271;49.464;11.070;2022-12-07T12:05:05;5.80;99.90
4518;DHT22;2271;49.464;11.070;2022-12-07T12:07:37;5.70;99.90
4518;DHT22;2271;49.464;11.070;2022-12-07T12:10:27;5.70;99.90
4518;DHT22;2271;49.464;11.070;2022-12-07T12:20:58;5.70;99.90
4518;DHT22;2271;49.464;11.070;2022-12-07T12:26:18;5.80;99.90
4518;DHT22;2271;49.464;11.070;2022-12-07T12:29:03;5.80;99.90
4518;DHT22;2271;49.464;11.070;2022-12-07T12:31:39;5.80;99.90
4518;DHT22;2271;49.464;11.070;2022-12-07T12:34:32;5.80;99.90
4518;DHT22;2271;49.464;11.070;2022-12-07T12:36:58;5.70;99.90
4518;DHT22;2271;49.464;11.070;2022-12-07T12:39:25;5.70;99.90
4518;DHT22;2271;49.464;11.070;2022-12-07T12:41:53;5.60;99.90
4518;DHT22;2271;49.464;11.070;2022-12-07T12:46:58;5.70;99.90
4518;DHT22;2271;49.464;11.070;2022-12-07T12:55:11;5.70;99.90
4518;DHT22;2271;49.464;11.070;2022-12-07T12:57:37;5.80;99.90
4518;DHT22;2271;49.464;11.070;2022-12-07T13:02:53;5.80;99.90
4518;DHT22;2271;49.464;11.070;2022-12-07T13:05:20;5.80;99.90
4518;DHT22;2271;49.464;11.070;2022-12-07T13:13:02;5.80;99.90
4518;DHT22;2271;49.464;11.070;2022-12-07T13:15:36;5.80;99.90
4518;DHT22;2271;49.464;11.070;2022-12-07T13:18:14;5.80;99.90
4518;DHT22;2271;49.464;11.070;2022-12-07T13:20:52;5.70;99.90
4518;DHT22;2271;49.464;11.070;2022-12-07T13:26:14;5.80;99.90
4518;DHT22;2271;49.464;11.070;2022-12-07T13:28:46;5.80;99.90
4518;DHT22;2271;49.464;11.070;2022-12-07T13:33:58;5.80;99.90
4518;DHT22;2271;49.464;11.070;2022-12-07T13:36:26;5.70;99.90
4518;DHT22;2271;49.464;11.070;2022-12-07T13:41:22;5.70;99.90
4518;DHT22;2271;49.464;11.070;2022-12-07T13:43:49;5.70;99.90
4518;DHT22;2271;49.464;11.070;2022-12-07T13:46:17;5.70;99.90
4518;DHT22;2271;49.464;11.070;2022-12-07T13:48:49;5.70;99.90
4518;DHT22;2271;49.464;11.070;2022-12-07T13:51:24;5.70;99.90
4518;DHT22;2271;49.464;11.070;2022-12-07T13:54:06;5.70;99.90
4518;DHT22;2271;49.464;11.070;2022-12-07T13:56:35;5.70;99.90
4518;DHT22;2271;49.464;11.070;2022-12-07T13:59:02;5.60;99.90
4518;DHT22;2271;49.464;11.070;2022-12-07T14:01:30;5.60;99.90
4518;DHT22;2271;49.464;11.070;2022-12-07T14:04:15;5.60;99.90
4518;DHT22;2271;49.464;11.070;2022-12-07T14:06:51;5.70;99.90
4518;DHT22;2271;49.464;11.070;2022-12-07T14:09:22;5.70;99.90
4518;DHT22;2271;49.464;11.070;2022-12-07T14:11:49;5.60;99.90
4518;DHT22;2271;49.464;11.070;2022-12-07T14:14:19;5.70;99.90
4518;DHT22;2271;49.464;11.070;2022-12-07T14:17:15;5.70;99.90
4518;DHT22;2271;49.464;11.070;2022-12-07T14:22:41;5.70;99.90
4518;DHT22;2271;49.464;11.070;2022-12-07T14:27:39;5.80;99.90
4518;DHT22;2271;49.464;11.070;2022-12-07T14:30:16;5.80;99.90
4518;DHT22;2271;49.464;11.070;2022-12-07T14:32:43;5.70;99.90
4518;DHT22;2271;49.464;11.070;2022-12-07T14:35:15;5.70;99.90
4518;DHT22;2271;49.464;11.070;2022-12-07T14:37:43;5.70;99.90
4518;DHT22;2271;49.464;11.070;2022-12-07T14:40:14;6.50;99.90
4518;DHT22;2271;49.464;11.070;2022-12-07T14:42:40;6.70;99.90
4518;DHT22;2271;49.464;11.070;2022-12-07T14:45:14;6.50;99.90
4518;DHT22;2271;49.464;11.070;2022-12-07T14:47:40;6.20;99.90
4518;DHT22;2271;49.464;11.070;2022-12-07T14:50:06;6.00;99.90
4518;DHT22;2271;49.464;11.070;2022-12-07T14:52:33;5.90;99.90
4518;DHT22;2271;49.464;11.070;2022-12-07T14:54:59;5.70;99.90
4518;DHT22;2271;49.464;11.070;2022-12-07T14:57:24;5.60;99.90
4518;DHT22;2271;49.464;11.070;2022-12-07T14:59:50;5.60;99.90
4518;DHT22;2271;49.464;11.070;2022-12-07T15:02:15;5.50;99.90
4518;DHT22;2271;49.464;11.070;2022-12-07T15:04:41;5.40;99.90
4518;DHT22;2271;49.464;11.070;2022-12-07T15:07:20;5.30;99.90
4518;DHT22;2271;49.464;11.070;2022-12-07T15:09:47;5.30;99.90
4518;DHT22;2271;49.464;11.070;2022-12-07T15:12:12;5.20;99.90
4518;DHT22;2271;49.464;11.070;2022-12-07T15:14:38;5.80;99.90
4518;DHT22;2271;49.464;11.070;2022-12-07T15:17:03;7.20;99.90
4518;DHT22;2271;49.464;11.070;2022-12-07T15:19:29;6.90;99.90
4518;DHT22;2271;49.464;11.070;2022-12-07T15:21:56;6.70;99.90
4518;DHT22;2271;49.464;11.070;2022-12-07T15:24:22;6.30;99.90
4518;DHT22;2271;49.464;11.070;2022-12-07T15:26:49;6.00;99.90
4518;DHT22;2271;49.464;11.070;2022-12-07T15:29:15;5.80;99.90
4518;DHT22;2271;49.464;11.070;2022-12-07T15:31:42;5.70;99.90
4518;DHT22;2271;49.464;11.070;2022-12-07T15:34:08;5.60;99.90
4518;DHT22;2271;49.464;11.070;2022-12-07T15:36:34;5.50;99.90
4518;DHT22;2271;49.464;11.070;2022-12-07T15:39:00;5.50;99.90
4518;DHT22;2271;49.464;11.070;2022-12-07T15:41:26;5.50;99.90
4518;DHT22;2271;49.464;11.070;2022-12-07T15:43:52;5.40;99.90
4518;DHT22;2271;49.464;11.070;2022-12-07T15:46:41;5.40;99.90
4518;DHT22;2271;49.464;11.070;2022-12-07T15:49:16;5.40;99.90
4518;DHT22;2271;49.464;11.070;2022-12-07T15:51:43;5.40;99.90
4518;DHT22;2271;49.464;11.070;2022-12-07T15:54:13;5.50;99.90
4518;DHT22;2271;49.464;11.070;2022-12-07T15:56:41;5.50;99.90
4518;DHT22;2271;49.464;11.070;2022-12-07T15:59:07;5.40;99.90
4518;DHT22;2271;49.464;11.070;2022-12-07T16:01:32;5.50;99.90
4518;DHT22;2271;49.464;11.070;2022-12-07T16:03:58;5.40;99.90
4518;DHT22;2271;49.464;11.070;2022-12-07T16:06:24;5.40;99.90
4518;DHT22;2271;49.464;11.070;2022-12-07T16:08:50;5.40;99.90
4518;DHT22;2271;49.464;11.070;2022-12-07T16:11:16;5.50;99.90
4518;DHT22;2271;49.464;11.070;2022-12-07T16:13:41;5.40;99.90
4518;DHT22;2271;49.464;11.070;2022-12-07T16:16:10;5.40;99.90
4518;DHT22;2271;49.464;11.070;2022-12-07T16:18:36;5.40;99.90
4518;DHT22;2271;49.464;11.070;2022-12-07T16:21:02;5.40;99.90
4518;DHT22;2271;49.464;11.070;2022-12-07T16:23:28;5.50;99.90
4518;DHT22;2271;49.464;11.070;2022-12-07T16:25:54;5.50;99.90
4518;DHT22;2271;49.464;11.070;2022-12-07T16:28:20;5.40;99.90
4518;DHT22;2271;49.464;11.070;2022-12-07T16:30:46;5.50;99.90
4518;DHT22;2271;49.464;11.070;2022-12-07T16:33:12;5.40;99.90
4518;DHT22;2271;49.464;11.070;2022-12-07T16:35:40;5.50;99.90
4518;DHT22;2271;49.464;11.070;2022-12-07T16:38:06;5.40;99.90
4518;DHT22;2271;49.464;11.070;2022-12-07T16:40:32;5.40;99.90
4518;DHT22;2271;49.464;11.070;2022-12-07T16:42:58;5.40;99.90
4518;DHT22;2271;49.464;11.070;2022-12-07T16:45:23;5.30;99.90
4518;DHT22;2271;49.464;11.070;2022-12-07T16:47:49;5.40;99.90
4518;DHT22;2271;49.464;11.070;2022-12-07T16:50:15;5.30;99.90
4518;DHT22;2271;49.464;11.070;2022-12-07T16:52:40;5.30;99.90
4518;DHT22;2271;49.464;11.070;2022-12-07T16:55:06;5.40;99.90
4518;DHT22;2271;49.464;11.070;2022-12-07T16:57:32;5.40;99.90
4518;DHT22;2271;49.464;11.070;2022-12-07T16:59:57;5.30;99.90
4518;DHT22;2271;49.464;11.070;2022-12-07T17:02:23;5.30;99.90
4518;DHT22;2271;49.464;11.070;2022-12-07T17:04:49;5.30;99.90
4518;DHT22;2271;49.464;11.070;2022-12-07T17:07:15;5.30;99.90
4518;DHT22;2271;49.464;11.070;2022-12-07T17:09:41;5.20;99.90
4518;DHT22;2271;49.464;11.070;2022-12-07T17:12:06;5.30;99.90
4518;DHT22;2271;49.464;11.070;2022-12-07T17:14:32;5.30;99.90
4518;DHT22;2271;49.464;11.070;2022-12-07T17:17:16;5.30;99.90
4518;DHT22;2271;49.464;11.070;2022-12-07T17:19:42;5.30;99.90
4518;DHT22;2271;49.464;11.070;2022-12-07T17:22:08;5.30;99.90
4518;DHT22;2271;49.464;11.070;2022-12-07T17:24:36;5.30;99.90
4518;DHT22;2271;49.464;11.070;2022-12-07T17:27:02;5.30;99.90
4518;DHT22;2271;49.464;11.070;2022-12-07T17:29:28;5.30;99.90
4518;DHT22;2271;49.464;11.070;2022-12-07T17:31:53;5.30;99.90
4518;DHT22;2271;49.464;11.070;2022-12-07T17:34:19;5.30;99.90
4518;DHT22;2271;49.464;11.070;2022-12-07T17:36:45;5.30;99.90
4518;DHT22;2271;49.464;11.070;2022-12-07T17:39:13;5.30;99.90
4518;DHT22;2271;49.464;11.070;2022-12-07T17:41:39;5.30;99.90
4518;DHT22;2271;49.464;11.070;2022-12-07T17:44:23;5.30;99.90
4518;DHT22;2271;49.464;11.070;2022-12-07T17:46:52;5.20;99.90
4518;DHT22;2271;49.464;11.070;2022-12-07T17:49:20;5.20;99.90
4518;DHT22;2271;49.464;11.070;2022-12-07T17:51:46;5.30;99.90
4518;DHT22;2271;49.464;11.070;2022-12-07T17:54:30;5.30;99.90
4518;DHT22;2271;49.464;11.070;2022-12-07T17:56:56;5.30;99.90
4518;DHT22;2271;49.464;11.070;2022-12-07T17:59:22;5.20;99.90
4518;DHT22;2271;49.464;11.070;2022-12-07T18:01:47;5.20;99.90
4518;DHT22;2271;49.464;11.070;2022-12-07T18:04:13;5.20;99.90
4518;DHT22;2271;49.464;11.070;2022-12-07T18:06:39;5.20;99.90
4518;DHT22;2271;49.464;11.070;2022-12-07T18:09:05;5.20;99.90
4518;DHT22;2271;49.464;11.070;2022-12-07T18:11:32;5.30;99.90